TimeCET,TemperatureF,Dew PointF,Humidity,Sea Level PressureIn,VisibilityMPH,Wind Direction,Wind SpeedMPH,Gust SpeedMPH,PrecipitationIn,Events,Conditions,WindDirDegrees,DateUTC
12:00 AM,48.2,44.6,87,29.95,-9999.0,WSW,3.5,-,N/A,,Clear,250,2013-02-20 23:00:00
12:30 AM,48.2,44.6,87,29.95,-9999.0,WSW,4.6,-,N/A,,Clear,250,2013-02-20 23:30:00
1:00 AM,51,42,64,29.95,12,WSW,8.1,,,,,240,2013-02-21 00:00:00
1:00 AM,51.8,44.6,76,29.95,-9999.0,WSW,8.1,-,N/A,,Clear,240,2013-02-21 00:00:00
1:30 AM,50.0,44.6,82,29.92,-9999.0,WSW,3.5,-,N/A,,Clear,250,2013-02-21 00:30:00
2:00 AM,51.8,44.6,76,29.92,-9999.0,SW,8.1,-,N/A,,Clear,220,2013-02-21 01:00:00
2:30 AM,51.8,44.6,76,29.92,-9999.0,SW,9.2,-,N/A,,Clear,230,2013-02-21 01:30:00
3:00 AM,50.0,44.6,82,29.92,-9999.0,SW,8.1,-,N/A,,Clear,230,2013-02-21 02:00:00
4:00 AM,53.6,44.6,72,29.89,-9999.0,West,10.4,21.9,N/A,,Clear,260,2013-02-21 03:00:00
5:00 AM,55.4,44.6,67,29.89,-9999.0,WSW,9.2,-,N/A,,Clear,250,2013-02-21 04:00:00
5:30 AM,55.4,44.6,67,29.89,-9999.0,WSW,10.4,-,N/A,,Clear,240,2013-02-21 04:30:00
6:00 AM,57.2,44.6,63,29.89,-9999.0,WSW,9.2,-,N/A,,Clear,240,2013-02-21 05:00:00
6:30 AM,55.4,44.6,67,29.89,-9999.0,WSW,5.8,-,N/A,,Clear,240,2013-02-21 05:30:00
7:00 AM,57.2,44.6,63,29.89,-9999.0,West,10.4,21.9,N/A,,Clear,280,2013-02-21 06:00:00
7:30 AM,57.2,44.6,63,29.89,-9999.0,WNW,15.0,-,N/A,,Clear,300,2013-02-21 06:30:00
8:00 AM,57.2,44.6,63,29.89,-9999.0,WNW,12.7,-,N/A,,Clear,300,2013-02-21 07:00:00
8:30 AM,57.2,44.6,63,29.89,-9999.0,WNW,15.0,-,N/A,,Clear,300,2013-02-21 07:30:00
9:00 AM,59.0,44.6,59,29.89,-9999.0,NW,18.4,-,N/A,,Clear,310,2013-02-21 08:00:00
9:30 AM,60.8,42.8,52,29.89,-9999.0,WNW,18.4,32.2,N/A,,Clear,300,2013-02-21 08:30:00
10:00 AM,60.8,42.8,52,29.89,-9999.0,WNW,23.0,35.7,N/A,,Clear,300,2013-02-21 09:00:00
10:30 AM,62.6,42.8,48,29.89,-9999.0,NW,19.6,32.2,N/A,,Clear,310,2013-02-21 09:30:00
11:00 AM,62.6,42.8,48,29.89,-9999.0,NW,18.4,-,N/A,,Clear,310,2013-02-21 10:00:00
11:30 AM,66.2,39.2,37,29.89,-9999.0,WNW,18.4,-,N/A,,Clear,290,2013-02-21 10:30:00
12:00 PM,64.4,39.2,40,29.89,-9999.0,WNW,19.6,-,N/A,,Clear,290,2013-02-21 11:00:00
12:30 PM,68.0,37.4,33,29.89,-9999.0,WNW,16.1,-,N/A,,Clear,300,2013-02-21 11:30:00
1:00 PM,66,33,18,29.89,22,West,17.3,,,,Scattered Clouds,280,2013-02-21 12:00:00
1:00 PM,68.0,35.6,30,29.89,6.2,West,17.3,29.9,N/A,,Partly Cloudy,280,2013-02-21 12:00:00
1:30 PM,64.4,35.6,34,29.86,6.2,West,13.8,-,N/A,,Partly Cloudy,280,2013-02-21 12:30:00
2:00 PM,66.2,37.4,35,29.86,6.2,West,15.0,-,N/A,,Partly Cloudy,280,2013-02-21 13:00:00
2:30 PM,68.0,39.2,35,29.83,6.2,West,10.4,-,N/A,,Partly Cloudy,280,2013-02-21 13:30:00
3:00 PM,66.2,39.2,37,29.83,6.2,West,13.8,-,N/A,,Partly Cloudy,270,2013-02-21 14:00:00
3:30 PM,68.0,39.2,35,29.83,6.2,West,17.3,-,N/A,,Partly Cloudy,260,2013-02-21 14:30:00
4:00 PM,69.8,41.0,35,29.80,6.2,WSW,12.7,-,N/A,,Partly Cloudy,250,2013-02-21 15:00:00
4:30 PM,69.8,41.0,35,29.80,6.2,WSW,12.7,-,N/A,,Scattered Clouds,240,2013-02-21 15:30:00
5:00 PM,69.8,41.0,35,29.80,6.2,West,10.4,-,N/A,,Scattered Clouds,270,2013-02-21 16:00:00
5:30 PM,68.0,41.0,37,29.80,6.2,WNW,11.5,-,N/A,,Scattered Clouds,290,2013-02-21 16:30:00
6:00 PM,66.2,42.8,43,29.80,6.2,WNW,9.2,-,N/A,,Scattered Clouds,300,2013-02-21 17:00:00
6:30 PM,66.2,44.6,46,29.80,6.2,WNW,9.2,-,N/A,,Scattered Clouds,300,2013-02-21 17:30:00
7:00 PM,64,41,31,29.82,22,WSW,6.9,,,,Scattered Clouds,250,2013-02-21 18:00:00
7:00 PM,66.2,42.8,43,29.80,6.2,West,6.9,-,N/A,,Partly Cloudy,260,2013-02-21 18:00:00
7:30 PM,62.6,44.6,52,29.80,6.2,West,5.8,-,N/A,,Partly Cloudy,280,2013-02-21 18:30:00
8:00 PM,64.4,44.6,49,29.80,-9999.0,West,5.8,-,N/A,,Clear,270,2013-02-21 19:00:00
8:30 PM,62.6,44.6,52,29.80,-9999.0,West,5.8,-,N/A,,Clear,280,2013-02-21 19:30:00
9:00 PM,62.6,44.6,52,29.80,-9999.0,Variable,2.3,-,N/A,,Clear,0,2013-02-21 20:00:00
9:30 PM,62.6,46.4,55,29.80,-9999.0,SW,9.2,-,N/A,,Clear,220,2013-02-21 20:30:00
10:00 PM,60.8,44.6,55,29.80,-9999.0,WSW,5.8,-,N/A,,Clear,250,2013-02-21 21:00:00
10:30 PM,59.0,46.4,63,29.80,-9999.0,WSW,5.8,-,N/A,,Clear,240,2013-02-21 21:30:00
11:00 PM,59.0,46.4,63,29.77,-9999.0,WSW,8.1,-,N/A,,Clear,240,2013-02-21 22:00:00
11:30 PM,59.0,46.4,63,29.77,-9999.0,WSW,8.1,-,N/A,,Clear,240,2013-02-21 22:30:00